sensor_id;sensor_type;location;lat;lon;timestamp;pressure;altitude;pressure_sealevel;temperature;humidity
9538;BME280;4807;48.024;11.726;2023-07-28T00:01:32;94429.38;;;14.17;79.74
9538;BME280;4807;48.024;11.726;2023-07-28T00:04:41;94427.06;;;14.08;80.05
9538;BME280;4807;48.024;11.726;2023-07-28T00:07:50;94429.63;;;14.03;80.51
9538;BME280;4807;48.024;11.726;2023-07-28T00:10:59;94428.47;;;13.99;81.34
9538;BME280;4807;48.024;11.726;2023-07-28T00:14:08;94429.16;;;13.95;81.71
9538;BME280;4807;48.024;11.726;2023-07-28T00:17:18;94425.09;;;13.92;81.48
9538;BME280;4807;48.024;11.726;2023-07-28T00:20:27;94429.28;;;13.88;81.84
9538;BME280;4807;48.024;11.726;2023-07-28T00:23:36;94419.53;;;13.94;80.95
9538;BME280;4807;48.024;11.726;2023-07-28T00:26:45;94422.31;;;14.10;80.62
9538;BME280;4807;48.024;11.726;2023-07-28T00:29:54;94427.88;;;13.97;80.86
9538;BME280;4807;48.024;11.726;2023-07-28T00:33:04;94421.25;;;13.88;80.76
9538;BME280;4807;48.024;11.726;2023-07-28T00:36:13;94422.56;;;13.86;81.71
9538;BME280;4807;48.024;11.726;2023-07-28T00:39:22;94425.78;;;13.88;81.50
9538;BME280;4807;48.024;11.726;2023-07-28T00:42:31;94423.44;;;14.03;81.44
9538;BME280;4807;48.024;11.726;2023-07-28T00:45:43;94418.44;;;14.06;81.45
9538;BME280;4807;48.024;11.726;2023-07-28T00:48:54;94423.19;;;14.28;80.33
9538;BME280;4807;48.024;11.726;2023-07-28T00:52:04;94418.06;;;14.49;79.93
9538;BME280;4807;48.024;11.726;2023-07-28T00:55:14;94416.38;;;14.60;78.70
9538;BME280;4807;48.024;11.726;2023-07-28T00:58:23;94421.22;;;14.75;77.85
9538;BME280;4807;48.024;11.726;2023-07-28T01:01:33;94419.91;;;14.77;77.20
9538;BME280;4807;48.024;11.726;2023-07-28T01:04:43;94417.91;;;14.84;76.83
9538;BME280;4807;48.024;11.726;2023-07-28T01:07:59;94421.66;;;14.83;77.12
9538;BME280;4807;48.024;11.726;2023-07-28T01:11:10;94410.56;;;14.92;76.40
9538;BME280;4807;48.024;11.726;2023-07-28T01:14:19;94416.69;;;14.92;76.55
9538;BME280;4807;48.024;11.726;2023-07-28T01:17:28;94411.69;;;14.96;76.65
9538;BME280;4807;48.024;11.726;2023-07-28T01:20:39;94418.00;;;14.89;76.89
9538;BME280;4807;48.024;11.726;2023-07-28T01:23:59;94414.59;;;14.94;76.33
9538;BME280;4807;48.024;11.726;2023-07-28T01:27:11;94414.38;;;14.96;76.26
9538;BME280;4807;48.024;11.726;2023-07-28T01:30:21;94417.03;;;14.96;75.94
9538;BME280;4807;48.024;11.726;2023-07-28T01:33:33;94408.41;;;14.94;75.16
9538;BME280;4807;48.024;11.726;2023-07-28T01:36:42;94411.16;;;14.82;75.96
9538;BME280;4807;48.024;11.726;2023-07-28T01:39:51;94411.31;;;14.75;75.05
9538;BME280;4807;48.024;11.726;2023-07-28T01:43:01;94417.38;;;14.42;76.65
9538;BME280;4807;48.024;11.726;2023-07-28T01:46:10;94428.16;;;14.36;76.79
9538;BME280;4807;48.024;11.726;2023-07-28T01:49:18;94416.91;;;14.34;77.23
9538;BME280;4807;48.024;11.726;2023-07-28T01:52:27;94423.44;;;14.26;76.97
9538;BME280;4807;48.024;11.726;2023-07-28T01:55:36;94415.31;;;14.09;78.05
9538;BME280;4807;48.024;11.726;2023-07-28T01:58:46;94416.81;;;14.05;77.56
9538;BME280;4807;48.024;11.726;2023-07-28T02:01:55;94418.44;;;13.95;78.33
9538;BME280;4807;48.024;11.726;2023-07-28T02:05:06;94419.63;;;13.87;78.23
9538;BME280;4807;48.024;11.726;2023-07-28T02:08:18;94412.53;;;13.93;77.76
9538;BME280;4807;48.024;11.726;2023-07-28T02:11:26;94408.91;;;13.87;77.58
9538;BME280;4807;48.024;11.726;2023-07-28T02:14:36;94416.63;;;13.84;78.06
9538;BME280;4807;48.024;11.726;2023-07-28T02:17:45;94424.41;;;13.73;78.19
9538;BME280;4807;48.024;11.726;2023-07-28T02:20:54;94432.09;;;13.70;78.45
9538;BME280;4807;48.024;11.726;2023-07-28T02:24:03;94422.91;;;13.66;78.12
9538;BME280;4807;48.024;11.726;2023-07-28T02:27:12;94433.03;;;13.75;78.50
9538;BME280;4807;48.024;11.726;2023-07-28T02:30:22;94421.41;;;13.70;78.73
9538;BME280;4807;48.024;11.726;2023-07-28T02:33:30;94422.91;;;13.66;78.39
9538;BME280;4807;48.024;11.726;2023-07-28T02:36:42;94415.66;;;13.55;78.52
9538;BME280;4807;48.024;11.726;2023-07-28T02:39:51;94421.38;;;13.47;78.97
9538;BME280;4807;48.024;11.726;2023-07-28T02:43:00;94415.31;;;13.40;79.44
9538;BME280;4807;48.024;11.726;2023-07-28T02:46:10;94424.38;;;13.38;79.99
9538;BME280;4807;48.024;11.726;2023-07-28T02:49:18;94416.94;;;13.41;80.03
9538;BME280;4807;48.024;11.726;2023-07-28T02:52:27;94416.13;;;13.28;80.01
9538;BME280;4807;48.024;11.726;2023-07-28T02:55:41;94416.69;;;13.19;80.21
9538;BME280;4807;48.024;11.726;2023-07-28T02:58:50;94421.44;;;13.17;80.56
9538;BME280;4807;48.024;11.726;2023-07-28T03:02:00;94418.19;;;13.15;80.68
9538;BME280;4807;48.024;11.726;2023-07-28T03:05:10;94417.03;;;13.22;81.22
9538;BME280;4807;48.024;11.726;2023-07-28T03:08:42;94411.94;;;13.21;80.67
9538;BME280;4807;48.024;11.726;2023-07-28T03:12:20;94412.63;;;13.16;80.95
9538;BME280;4807;48.024;11.726;2023-07-28T03:15:29;94413.78;;;13.20;81.00
9538;BME280;4807;48.024;11.726;2023-07-28T03:18:39;94419.63;;;13.41;79.85
9538;BME280;4807;48.024;11.726;2023-07-28T03:21:48;94430.69;;;13.44;79.96
9538;BME280;4807;48.024;11.726;2023-07-28T03:24:56;94428.81;;;13.45;80.37
9538;BME280;4807;48.024;11.726;2023-07-28T03:28:05;94419.41;;;13.54;79.92
9538;BME280;4807;48.024;11.726;2023-07-28T03:31:14;94428.25;;;13.66;78.05
9538;BME280;4807;48.024;11.726;2023-07-28T03:34:24;94428.72;;;13.74;77.71
9538;BME280;4807;48.024;11.726;2023-07-28T03:37:35;94426.97;;;13.92;77.05
9538;BME280;4807;48.024;11.726;2023-07-28T03:40:44;94425.47;;;13.84;77.20
9538;BME280;4807;48.024;11.726;2023-07-28T03:43:52;94430.22;;;13.82;78.00
9538;BME280;4807;48.024;11.726;2023-07-28T03:47:02;94423.72;;;14.01;76.86
9538;BME280;4807;48.024;11.726;2023-07-28T03:50:12;94431.47;;;14.03;77.14
9538;BME280;4807;48.024;11.726;2023-07-28T03:53:21;94433.13;;;14.04;77.09
9538;BME280;4807;48.024;11.726;2023-07-28T03:56:32;94435.19;;;14.13;76.65
9538;BME280;4807;48.024;11.726;2023-07-28T03:59:41;94427.63;;;14.22;76.06
9538;BME280;4807;48.024;11.726;2023-07-28T04:02:50;94428.22;;;14.24;75.79
9538;BME280;4807;48.024;11.726;2023-07-28T04:06:00;94422.81;;;14.36;76.19
9538;BME280;4807;48.024;11.726;2023-07-28T04:09:08;94428.44;;;14.23;75.75
9538;BME280;4807;48.024;11.726;2023-07-28T04:12:17;94431.22;;;14.39;76.11
9538;BME280;4807;48.024;11.726;2023-07-28T04:15:26;94425.28;;;14.49;75.89
9538;BME280;4807;48.024;11.726;2023-07-28T04:18:34;94420.72;;;14.49;75.35
9538;BME280;4807;48.024;11.726;2023-07-28T04:21:44;94419.09;;;14.48;75.02
9538;BME280;4807;48.024;11.726;2023-07-28T04:24:53;94423.56;;;14.43;75.40
9538;BME280;4807;48.024;11.726;2023-07-28T04:28:02;94421.56;;;14.38;75.70
9538;BME280;4807;48.024;11.726;2023-07-28T04:31:11;94421.44;;;14.45;74.93
9538;BME280;4807;48.024;11.726;2023-07-28T04:34:34;94420.56;;;14.84;74.50
9538;BME280;4807;48.024;11.726;2023-07-28T04:37:52;94419.66;;;14.91;73.74
9538;BME280;4807;48.024;11.726;2023-07-28T04:41:11;94419.91;;;15.06;72.83
9538;BME280;4807;48.024;11.726;2023-07-28T04:44:33;94422.78;;;15.16;71.69
9538;BME280;4807;48.024;11.726;2023-07-28T04:47:43;94425.94;;;15.13;71.92
9538;BME280;4807;48.024;11.726;2023-07-28T04:50:53;94430.56;;;15.17;72.23
9538;BME280;4807;48.024;11.726;2023-07-28T04:54:22;94419.13;;;15.22;72.53
9538;BME280;4807;48.024;11.726;2023-07-28T04:57:30;94425.97;;;15.46;72.31
9538;BME280;4807;48.024;11.726;2023-07-28T05:00:39;94431.88;;;15.98;70.97
9538;BME280;4807;48.024;11.726;2023-07-28T05:03:48;94467.81;;;16.14;69.86
9538;BME280;4807;48.024;11.726;2023-07-28T05:07:04;94460.59;;;15.98;70.73
9538;BME280;4807;48.024;11.726;2023-07-28T05:10:14;94473.72;;;15.78;73.48
9538;BME280;4807;48.024;11.726;2023-07-28T05:13:23;94465.84;;;15.54;76.52
9538;BME280;4807;48.024;11.726;2023-07-28T05:16:36;94458.06;;;15.41;78.28
9538;BME280;4807;48.024;11.726;2023-07-28T05:19:45;94444.50;;;15.31;79.91
9538;BME280;4807;48.024;11.726;2023-07-28T05:23:22;94442.75;;;15.25;80.29
9538;BME280;4807;48.024;11.726;2023-07-28T05:26:33;94454.06;;;15.27;81.32
9538;BME280;4807;48.024;11.726;2023-07-28T05:29:41;94456.59;;;15.34;80.93
9538;BME280;4807;48.024;11.726;2023-07-28T05:32:50;94463.28;;;15.31;81.51
9538;BME280;4807;48.024;11.726;2023-07-28T05:36:15;94472.22;;;15.37;82.78
9538;BME280;4807;48.024;11.726;2023-07-28T05:39:24;94469.91;;;15.28;83.29
9538;BME280;4807;48.024;11.726;2023-07-28T05:42:34;94468.06;;;15.46;83.16
9538;BME280;4807;48.024;11.726;2023-07-28T05:45:46;94468.44;;;15.21;82.64
9538;BME280;4807;48.024;11.726;2023-07-28T05:48:58;94465.88;;;15.43;81.46
9538;BME280;4807;48.024;11.726;2023-07-28T05:52:07;94481.88;;;15.38;81.91
9538;BME280;4807;48.024;11.726;2023-07-28T05:55:16;94481.72;;;15.44;81.73
9538;BME280;4807;48.024;11.726;2023-07-28T05:58:26;94464.53;;;15.74;81.56
9538;BME280;4807;48.024;11.726;2023-07-28T06:01:35;94474.19;;;16.08;81.40
9538;BME280;4807;48.024;11.726;2023-07-28T06:04:53;94482.13;;;16.36;80.95
9538;BME280;4807;48.024;11.726;2023-07-28T06:08:04;94496.06;;;16.72;79.87
9538;BME280;4807;48.024;11.726;2023-07-28T06:11:13;94492.00;;;16.91;79.19
9538;BME280;4807;48.024;11.726;2023-07-28T06:14:23;94489.03;;;17.14;77.57
9538;BME280;4807;48.024;11.726;2023-07-28T06:17:33;94489.72;;;17.05;78.00
9538;BME280;4807;48.024;11.726;2023-07-28T06:20:42;94498.44;;;17.39;76.73
9538;BME280;4807;48.024;11.726;2023-07-28T06:23:51;94494.19;;;18.02;74.22
9538;BME280;4807;48.024;11.726;2023-07-28T06:27:00;94502.59;;;18.47;72.21
9538;BME280;4807;48.024;11.726;2023-07-28T06:30:17;94515.25;;;19.61;67.97
9538;BME280;4807;48.024;11.726;2023-07-28T06:33:27;94514.41;;;19.56;67.46
9538;BME280;4807;48.024;11.726;2023-07-28T06:36:36;94516.50;;;19.38;67.80
9538;BME280;4807;48.024;11.726;2023-07-28T06:39:46;94521.19;;;18.86;69.44
9538;BME280;4807;48.024;11.726;2023-07-28T06:42:55;94518.25;;;18.13;70.86
9538;BME280;4807;48.024;11.726;2023-07-28T06:46:05;94541.59;;;18.03;72.06
9538;BME280;4807;48.024;11.726;2023-07-28T06:49:14;94528.75;;;19.71;65.57
9538;BME280;4807;48.024;11.726;2023-07-28T06:52:23;94525.19;;;21.67;60.18
9538;BME280;4807;48.024;11.726;2023-07-28T06:55:32;94538.91;;;22.25;56.47
9538;BME280;4807;48.024;11.726;2023-07-28T06:58:44;94534.91;;;21.14;59.06
9538;BME280;4807;48.024;11.726;2023-07-28T07:02:12;94538.75;;;20.87;61.98
9538;BME280;4807;48.024;11.726;2023-07-28T07:05:21;94540.25;;;22.90;56.53
9538;BME280;4807;48.024;11.726;2023-07-28T07:08:31;94539.69;;;23.17;52.88
9538;BME280;4807;48.024;11.726;2023-07-28T07:11:40;94536.31;;;22.77;53.92
9538;BME280;4807;48.024;11.726;2023-07-28T07:14:49;94521.38;;;21.04;59.27
9538;BME280;4807;48.024;11.726;2023-07-28T07:17:59;94527.69;;;22.02;58.04
9538;BME280;4807;48.024;11.726;2023-07-28T07:21:08;94537.31;;;23.95;53.23
9538;BME280;4807;48.024;11.726;2023-07-28T07:24:17;94537.84;;;25.27;48.21
9538;BME280;4807;48.024;11.726;2023-07-28T07:27:25;94533.59;;;26.48;45.14
9538;BME280;4807;48.024;11.726;2023-07-28T07:30:35;94527.50;;;26.29;42.61
9538;BME280;4807;48.024;11.726;2023-07-28T07:33:45;94531.19;;;26.91;43.25
9538;BME280;4807;48.024;11.726;2023-07-28T07:36:54;94536.75;;;26.05;44.16
9538;BME280;4807;48.024;11.726;2023-07-28T07:40:05;94530.06;;;25.07;46.30
9538;BME280;4807;48.024;11.726;2023-07-28T07:43:14;94540.03;;;24.14;49.09
9538;BME280;4807;48.024;11.726;2023-07-28T07:46:27;94536.38;;;23.20;51.73
9538;BME280;4807;48.024;11.726;2023-07-28T07:49:37;94525.63;;;22.23;53.86
9538;BME280;4807;48.024;11.726;2023-07-28T07:52:46;94537.81;;;21.87;55.21
9538;BME280;4807;48.024;11.726;2023-07-28T07:55:54;94528.06;;;22.25;54.39
9538;BME280;4807;48.024;11.726;2023-07-28T07:59:03;94523.50;;;24.11;50.82
9538;BME280;4807;48.024;11.726;2023-07-28T08:02:12;94523.25;;;25.87;47.74
9538;BME280;4807;48.024;11.726;2023-07-28T08:05:22;94534.41;;;27.24;42.98
9538;BME280;4807;48.024;11.726;2023-07-28T08:08:31;94532.88;;;26.34;45.02
9538;BME280;4807;48.024;11.726;2023-07-28T08:11:40;94524.88;;;26.01;45.78
9538;BME280;4807;48.024;11.726;2023-07-28T08:14:49;94532.50;;;25.50;49.03
9538;BME280;4807;48.024;11.726;2023-07-28T08:17:57;94523.03;;;25.61;46.51
9538;BME280;4807;48.024;11.726;2023-07-28T08:21:08;94516.44;;;25.75;48.12
9538;BME280;4807;48.024;11.726;2023-07-28T08:24:17;94517.56;;;27.00;45.19
9538;BME280;4807;48.024;11.726;2023-07-28T08:27:25;94512.69;;;26.43;45.97
9538;BME280;4807;48.024;11.726;2023-07-28T08:30:34;94522.97;;;24.46;49.60
9538;BME280;4807;48.024;11.726;2023-07-28T08:33:43;94511.19;;;25.38;48.87
9538;BME280;4807;48.024;11.726;2023-07-28T08:36:53;94516.03;;;26.63;45.98
9538;BME280;4807;48.024;11.726;2023-07-28T08:40:02;94525.94;;;25.09;49.23
9538;BME280;4807;48.024;11.726;2023-07-28T08:43:12;94530.91;;;24.75;49.96
9538;BME280;4807;48.024;11.726;2023-07-28T08:46:21;94537.78;;;25.60;47.72
9538;BME280;4807;48.024;11.726;2023-07-28T08:49:30;94517.44;;;25.79;47.09
9538;BME280;4807;48.024;11.726;2023-07-28T08:52:42;94529.78;;;25.77;47.96
9538;BME280;4807;48.024;11.726;2023-07-28T08:55:52;94529.56;;;25.32;47.80
9538;BME280;4807;48.024;11.726;2023-07-28T08:59:00;94530.09;;;24.75;48.91
9538;BME280;4807;48.024;11.726;2023-07-28T09:02:10;94543.13;;;24.78;49.81
9538;BME280;4807;48.024;11.726;2023-07-28T09:05:19;94532.81;;;24.42;47.77
9538;BME280;4807;48.024;11.726;2023-07-28T09:08:32;94554.38;;;24.20;50.17
9538;BME280;4807;48.024;11.726;2023-07-28T09:11:45;94555.19;;;24.39;48.97
9538;BME280;4807;48.024;11.726;2023-07-28T09:14:56;94554.69;;;24.69;46.70
9538;BME280;4807;48.024;11.726;2023-07-28T09:18:08;94540.69;;;24.76;46.31
9538;BME280;4807;48.024;11.726;2023-07-28T09:21:18;94547.53;;;25.33;44.71
9538;BME280;4807;48.024;11.726;2023-07-28T09:24:38;94528.84;;;25.40;44.67
9538;BME280;4807;48.024;11.726;2023-07-28T09:27:50;94536.25;;;25.26;45.66
9538;BME280;4807;48.024;11.726;2023-07-28T09:31:04;94533.50;;;25.26;45.88
9538;BME280;4807;48.024;11.726;2023-07-28T09:34:25;94536.44;;;25.02;46.49
9538;BME280;4807;48.024;11.726;2023-07-28T09:37:34;94550.66;;;25.40;46.28
9538;BME280;4807;48.024;11.726;2023-07-28T09:40:46;94550.97;;;25.25;45.83
9538;BME280;4807;48.024;11.726;2023-07-28T09:43:56;94553.31;;;24.86;47.02
9538;BME280;4807;48.024;11.726;2023-07-28T09:47:05;94553.88;;;24.69;47.29
9538;BME280;4807;48.024;11.726;2023-07-28T09:50:15;94549.16;;;24.42;47.40
9538;BME280;4807;48.024;11.726;2023-07-28T09:53:28;94558.94;;;24.24;48.30
9538;BME280;4807;48.024;11.726;2023-07-28T09:56:39;94564.44;;;24.01;47.90
9538;BME280;4807;48.024;11.726;2023-07-28T09:59:48;94558.84;;;24.11;49.54
9538;BME280;4807;48.024;11.726;2023-07-28T10:02:58;94559.16;;;23.90;48.92
9538;BME280;4807;48.024;11.726;2023-07-28T10:06:10;94557.22;;;24.10;48.82
9538;BME280;4807;48.024;11.726;2023-07-28T10:09:19;94550.78;;;24.06;49.84
9538;BME280;4807;48.024;11.726;2023-07-28T10:12:29;94545.19;;;24.34;48.73
9538;BME280;4807;48.024;11.726;2023-07-28T10:15:38;94542.63;;;24.89;49.53
9538;BME280;4807;48.024;11.726;2023-07-28T10:18:52;94542.97;;;25.01;45.94
9538;BME280;4807;48.024;11.726;2023-07-28T10:22:02;94536.63;;;25.33;45.99
9538;BME280;4807;48.024;11.726;2023-07-28T10:25:22;94548.44;;;25.15;46.33
9538;BME280;4807;48.024;11.726;2023-07-28T10:28:36;94553.69;;;25.25;47.12
9538;BME280;4807;48.024;11.726;2023-07-28T10:31:52;94555.44;;;25.21;45.80
9538;BME280;4807;48.024;11.726;2023-07-28T10:35:03;94565.09;;;25.41;47.05
9538;BME280;4807;48.024;11.726;2023-07-28T10:38:31;94563.41;;;25.72;46.45
9538;BME280;4807;48.024;11.726;2023-07-28T10:42:04;94555.13;;;25.64;46.24
9538;BME280;4807;48.024;11.726;2023-07-28T10:45:15;94564.78;;;25.01;48.16
9538;BME280;4807;48.024;11.726;2023-07-28T10:48:23;94567.63;;;24.78;49.83
9538;BME280;4807;48.024;11.726;2023-07-28T10:51:32;94569.81;;;24.94;48.95
9538;BME280;4807;48.024;11.726;2023-07-28T10:54:42;94560.53;;;24.95;48.64
9538;BME280;4807;48.024;11.726;2023-07-28T10:57:52;94570.66;;;24.90;49.22
9538;BME280;4807;48.024;11.726;2023-07-28T11:01:02;94571.78;;;25.21;48.39
9538;BME280;4807;48.024;11.726;2023-07-28T11:04:14;94566.91;;;25.04;47.92
9538;BME280;4807;48.024;11.726;2023-07-28T11:07:23;94574.34;;;24.99;47.35
9538;BME280;4807;48.024;11.726;2023-07-28T11:10:32;94574.69;;;24.79;49.17
9538;BME280;4807;48.024;11.726;2023-07-28T11:13:42;94571.44;;;24.95;47.16
9538;BME280;4807;48.024;11.726;2023-07-28T11:16:53;94575.16;;;24.99;48.07
9538;BME280;4807;48.024;11.726;2023-07-28T11:20:02;94579.03;;;24.80;48.80
9538;BME280;4807;48.024;11.726;2023-07-28T11:23:13;94573.75;;;25.02;47.53
9538;BME280;4807;48.024;11.726;2023-07-28T11:26:22;94579.38;;;24.92;48.31
9538;BME280;4807;48.024;11.726;2023-07-28T11:29:31;94568.31;;;25.16;46.34
9538;BME280;4807;48.024;11.726;2023-07-28T11:32:44;94577.31;;;24.84;48.00
9538;BME280;4807;48.024;11.726;2023-07-28T11:35:53;94569.44;;;25.56;45.63
9538;BME280;4807;48.024;11.726;2023-07-28T11:39:04;94564.91;;;25.51;46.11
9538;BME280;4807;48.024;11.726;2023-07-28T11:42:14;94564.75;;;25.61;44.96
9538;BME280;4807;48.024;11.726;2023-07-28T11:45:23;94561.44;;;26.00;45.10
9538;BME280;4807;48.024;11.726;2023-07-28T11:48:33;94563.78;;;26.43;43.43
9538;BME280;4807;48.024;11.726;2023-07-28T11:51:43;94554.09;;;26.23;43.21
9538;BME280;4807;48.024;11.726;2023-07-28T11:54:52;94563.25;;;26.63;42.71
9538;BME280;4807;48.024;11.726;2023-07-28T11:58:01;94559.91;;;26.88;41.93
9538;BME280;4807;48.024;11.726;2023-07-28T12:01:12;94557.47;;;27.09;41.30
9538;BME280;4807;48.024;11.726;2023-07-28T12:04:24;94554.97;;;27.21;41.39
9538;BME280;4807;48.024;11.726;2023-07-28T12:07:36;94559.81;;;27.33;41.94
9538;BME280;4807;48.024;11.726;2023-07-28T12:10:54;94556.66;;;26.86;41.45
9538;BME280;4807;48.024;11.726;2023-07-28T12:14:07;94556.94;;;26.99;41.71
9538;BME280;4807;48.024;11.726;2023-07-28T12:17:20;94555.94;;;26.72;40.68
9538;BME280;4807;48.024;11.726;2023-07-28T12:20:53;94555.31;;;26.53;38.75
9538;BME280;4807;48.024;11.726;2023-07-28T12:24:02;94557.31;;;26.61;39.74
9538;BME280;4807;48.024;11.726;2023-07-28T12:27:14;94547.25;;;26.92;39.36
9538;BME280;4807;48.024;11.726;2023-07-28T12:30:26;94545.13;;;26.89;39.42
9538;BME280;4807;48.024;11.726;2023-07-28T12:33:35;94548.47;;;26.86;39.91
9538;BME280;4807;48.024;11.726;2023-07-28T12:36:47;94545.63;;;26.69;40.29
9538;BME280;4807;48.024;11.726;2023-07-28T12:40:01;94552.59;;;26.98;39.87
9538;BME280;4807;48.024;11.726;2023-07-28T12:43:11;94557.97;;;27.11;39.54
9538;BME280;4807;48.024;11.726;2023-07-28T12:46:23;94554.88;;;26.82;39.20
9538;BME280;4807;48.024;11.726;2023-07-28T12:49:32;94556.63;;;27.31;38.73
9538;BME280;4807;48.024;11.726;2023-07-28T12:52:43;94545.94;;;27.21;40.10
9538;BME280;4807;48.024;11.726;2023-07-28T12:55:54;94551.69;;;27.11;38.84
9538;BME280;4807;48.024;11.726;2023-07-28T12:59:06;94553.13;;;27.39;39.14
9538;BME280;4807;48.024;11.726;2023-07-28T13:02:18;94549.41;;;26.82;36.94
9538;BME280;4807;48.024;11.726;2023-07-28T13:05:26;94546.00;;;26.76;37.16
9538;BME280;4807;48.024;11.726;2023-07-28T13:08:36;94549.84;;;26.31;39.03
9538;BME280;4807;48.024;11.726;2023-07-28T13:11:48;94546.44;;;26.92;39.87
9538;BME280;4807;48.024;11.726;2023-07-28T13:15:00;94556.44;;;26.74;36.60
9538;BME280;4807;48.024;11.726;2023-07-28T13:18:08;94553.50;;;26.71;37.36
9538;BME280;4807;48.024;11.726;2023-07-28T13:21:17;94556.69;;;26.42;37.97
9538;BME280;4807;48.024;11.726;2023-07-28T13:24:27;94565.03;;;26.59;38.48
9538;BME280;4807;48.024;11.726;2023-07-28T13:27:35;94566.13;;;26.58;36.82
9538;BME280;4807;48.024;11.726;2023-07-28T13:30:44;94557.53;;;26.29;39.22
9538;BME280;4807;48.024;11.726;2023-07-28T13:33:52;94557.34;;;26.25;39.17
9538;BME280;4807;48.024;11.726;2023-07-28T13:37:05;94570.94;;;26.39;38.65
9538;BME280;4807;48.024;11.726;2023-07-28T13:40:15;94558.19;;;26.48;38.65
9538;BME280;4807;48.024;11.726;2023-07-28T13:43:27;94557.31;;;26.39;40.13
9538;BME280;4807;48.024;11.726;2023-07-28T13:46:36;94561.16;;;27.05;38.93
9538;BME280;4807;48.024;11.726;2023-07-28T13:49:44;94567.72;;;27.04;37.99
9538;BME280;4807;48.024;11.726;2023-07-28T13:52:56;94569.00;;;26.98;38.24
9538;BME280;4807;48.024;11.726;2023-07-28T13:56:06;94569.28;;;26.74;39.10
9538;BME280;4807;48.024;11.726;2023-07-28T13:59:28;94580.38;;;26.33;39.41
9538;BME280;4807;48.024;11.726;2023-07-28T14:02:37;94576.09;;;25.50;40.80
9538;BME280;4807;48.024;11.726;2023-07-28T14:05:45;94585.19;;;25.18;41.62
9538;BME280;4807;48.024;11.726;2023-07-28T14:08:54;94590.63;;;24.85;41.80
9538;BME280;4807;48.024;11.726;2023-07-28T14:12:05;94604.53;;;24.51;43.22
9538;BME280;4807;48.024;11.726;2023-07-28T14:15:17;94600.91;;;24.00;46.94
9538;BME280;4807;48.024;11.726;2023-07-28T14:18:26;94618.97;;;22.90;53.11
9538;BME280;4807;48.024;11.726;2023-07-28T14:21:34;94604.47;;;22.32;57.87
9538;BME280;4807;48.024;11.726;2023-07-28T14:24:47;94608.13;;;22.17;58.16
9538;BME280;4807;48.024;11.726;2023-07-28T14:27:57;94615.81;;;21.95;61.76
9538;BME280;4807;48.024;11.726;2023-07-28T14:31:05;94615.69;;;21.71;62.29
9538;BME280;4807;48.024;11.726;2023-07-28T14:34:14;94607.31;;;21.57;63.23
9538;BME280;4807;48.024;11.726;2023-07-28T14:37:23;94617.34;;;21.62;64.55
9538;BME280;4807;48.024;11.726;2023-07-28T14:40:31;94595.53;;;21.18;65.55
9538;BME280;4807;48.024;11.726;2023-07-28T14:43:41;94597.16;;;21.19;66.85
9538;BME280;4807;48.024;11.726;2023-07-28T14:46:50;94591.69;;;21.39;65.12
9538;BME280;4807;48.024;11.726;2023-07-28T14:49:59;94582.53;;;21.84;62.62
9538;BME280;4807;48.024;11.726;2023-07-28T14:53:32;94570.91;;;22.23;63.03
9538;BME280;4807;48.024;11.726;2023-07-28T14:56:41;94565.19;;;22.29;61.59
9538;BME280;4807;48.024;11.726;2023-07-28T14:59:52;94571.63;;;22.38;61.71
9538;BME280;4807;48.024;11.726;2023-07-28T15:03:01;94566.34;;;22.18;58.99
9538;BME280;4807;48.024;11.726;2023-07-28T15:06:09;94561.50;;;22.49;59.89
9538;BME280;4807;48.024;11.726;2023-07-28T15:09:18;94558.84;;;22.78;57.35
9538;BME280;4807;48.024;11.726;2023-07-28T15:12:30;94560.97;;;22.81;55.27
9538;BME280;4807;48.024;11.726;2023-07-28T15:15:40;94564.63;;;22.95;57.43
9538;BME280;4807;48.024;11.726;2023-07-28T15:18:48;94549.38;;;22.99;55.54
9538;BME280;4807;48.024;11.726;2023-07-28T15:21:57;94561.41;;;23.41;54.25
9538;BME280;4807;48.024;11.726;2023-07-28T15:25:07;94568.03;;;23.30;56.16
9538;BME280;4807;48.024;11.726;2023-07-28T15:28:15;94569.84;;;23.15;54.64
9538;BME280;4807;48.024;11.726;2023-07-28T15:31:26;94567.03;;;23.49;54.55
9538;BME280;4807;48.024;11.726;2023-07-28T15:34:34;94572.75;;;23.90;55.54
9538;BME280;4807;48.024;11.726;2023-07-28T15:37:44;94574.91;;;23.46;54.15
9538;BME280;4807;48.024;11.726;2023-07-28T15:40:53;94567.78;;;23.55;55.14
9538;BME280;4807;48.024;11.726;2023-07-28T15:44:05;94567.41;;;23.14;54.33
9538;BME280;4807;48.024;11.726;2023-07-28T15:47:15;94569.16;;;23.29;53.38
9538;BME280;4807;48.024;11.726;2023-07-28T15:50:24;94578.75;;;23.69;54.10
9538;BME280;4807;48.024;11.726;2023-07-28T15:53:33;94579.31;;;24.27;53.00
9538;BME280;4807;48.024;11.726;2023-07-28T15:56:41;94561.50;;;24.53;50.61
9538;BME280;4807;48.024;11.726;2023-07-28T15:59:52;94571.34;;;24.12;51.52
9538;BME280;4807;48.024;11.726;2023-07-28T16:03:02;94565.19;;;23.87;51.29
9538;BME280;4807;48.024;11.726;2023-07-28T16:06:11;94561.81;;;24.33;51.71
9538;BME280;4807;48.024;11.726;2023-07-28T16:09:20;94558.09;;;24.61;51.71
9538;BME280;4807;48.024;11.726;2023-07-28T16:12:28;94552.78;;;24.84;51.73
9538;BME280;4807;48.024;11.726;2023-07-28T16:15:37;94555.19;;;25.04;50.87
9538;BME280;4807;48.024;11.726;2023-07-28T16:18:47;94561.41;;;24.91;51.64
9538;BME280;4807;48.024;11.726;2023-07-28T16:21:56;94557.13;;;25.03;51.94
9538;BME280;4807;48.024;11.726;2023-07-28T16:25:06;94553.47;;;24.94;51.77
9538;BME280;4807;48.024;11.726;2023-07-28T16:28:15;94569.28;;;24.92;51.88
9538;BME280;4807;48.024;11.726;2023-07-28T16:31:24;94562.94;;;24.64;52.27
9538;BME280;4807;48.024;11.726;2023-07-28T16:34:34;94562.16;;;24.45;52.92
9538;BME280;4807;48.024;11.726;2023-07-28T16:37:43;94558.50;;;24.36;54.35
9538;BME280;4807;48.024;11.726;2023-07-28T16:40:52;94560.13;;;24.00;55.32
9538;BME280;4807;48.024;11.726;2023-07-28T16:44:00;94561.81;;;23.95;55.74
9538;BME280;4807;48.024;11.726;2023-07-28T16:47:09;94563.09;;;24.17;55.40
9538;BME280;4807;48.024;11.726;2023-07-28T16:50:20;94562.75;;;23.86;55.66
9538;BME280;4807;48.024;11.726;2023-07-28T16:53:29;94570.91;;;24.05;54.85
9538;BME280;4807;48.024;11.726;2023-07-28T16:56:38;94565.34;;;24.66;53.93
9538;BME280;4807;48.024;11.726;2023-07-28T16:59:48;94561.69;;;25.63;52.07
9538;BME280;4807;48.024;11.726;2023-07-28T17:02:58;94565.34;;;26.44;49.82